Terminal Aerodrome Forecast
Issued by NWS Los Angeles, CA

Home | Current Version | Previous Version | Text Only | Print | Product List | Glossary On
Versions: 1 2 3 4 5 6 7 8 9 10 11 12
000
FTUS46 KLOX 250500
TAFSMX
TAF
KSMX 250537Z 2506/2606 16008KT P6SM SKC
     FM250800 VRB03KT P6SM SKC
     FM251300 VRB03KT 4SM BR SCT003
     FM251700 VRB05KT P6SM SKC
     FM252100 30008KT P6SM SKC
     FM260400 VRB05KT P6SM SKC=

USA.gov is the U.S. government's official web portal to all federal, state and local government web resources and services.